Wetterdaten: aktuell Dienstag, 21.05.2019 20:50
Datum Zeit Temp. A. Feuchte A. Luftdruck Regen Wind Richtung Richtung Taupunkt Windchill Windben
21.05.2019 20:50 9,9 C 96 % 1013,2 hPa 0,0 l/m 24,8 km/h (4 Bft) W-NW 286 9,3 C 1,7 C 37,0 km/h (5 Bft)
21.05.2019 20:45 9,9 C 96 % 1013,1 hPa 0,0 l/m 27,8 km/h (5 Bft) W-NW 284 9,3 C 1,0 C 41,8 km/h (6 Bft)
21.05.2019 20:40 9,9 C 96 % 1013,0 hPa 0,2 l/m 25,3 km/h (4 Bft) W 273 9,3 C 1,6 C 32,2 km/h (5 Bft)
21.05.2019 20:35 9,9 C 96 % 1012,9 hPa 0,0 l/m 27,1 km/h (5 Bft) W 266 9,3 C 1,2 C 37,0 km/h (5 Bft)
21.05.2019 20:30 10,0 C 96 % 1012,8 hPa 0,0 l/m 29,8 km/h (5 Bft) W 265 9,4 C 0,7 C 41,8 km/h (6 Bft)
21.05.2019 20:25 10,1 C 96 % 1012,8 hPa 0,0 l/m 23,9 km/h (4 Bft) W 275 9,5 C 2,3 C 35,4 km/h (5 Bft)
21.05.2019 20:20 10,1 C 96 % 1012,7 hPa 0,2 l/m 19,8 km/h (3 Bft) W 273 9,5 C 3,5 C 25,7 km/h (4 Bft)
21.05.2019 20:15 10,1 C 96 % 1012,6 hPa 0,2 l/m 23,9 km/h (4 Bft) W 273 9,5 C 2,3 C 40,2 km/h (6 Bft)
21.05.2019 20:10 10,1 C 96 % 1012,6 hPa 0,4 l/m 23,2 km/h (4 Bft) W 261 9,5 C 2,5 C 30,6 km/h (5 Bft)
21.05.2019 20:05 10,2 C 96 % 1012,5 hPa 0,0 l/m 19,0 km/h (3 Bft) W-NW 294 9,6 C 3,9 C 27,4 km/h (5 Bft)
21.05.2019 20:00 10,2 C 96 % 1012,5 hPa 0,4 l/m 22,4 km/h (4 Bft) W 273 9,6 C 2,8 C 32,2 km/h (5 Bft)
21.05.2019 19:55 10,2 C 96 % 1012,4 hPa 0,0 l/m 17,9 km/h (3 Bft) W 281 9,6 C 4,3 C 24,1 km/h (4 Bft)
21.05.2019 19:50 10,2 C 96 % 1012,3 hPa 0,4 l/m 20,1 km/h (4 Bft) W-NW 284 9,6 C 3,5 C 29,0 km/h (5 Bft)
21.05.2019 19:45 10,2 C 96 % 1012,2 hPa 0,0 l/m 24,5 km/h (4 Bft) W 269 9,6 C 2,2 C 38,6 km/h (6 Bft)
21.05.2019 19:40 10,2 C 96 % 1012,2 hPa 0,2 l/m 24,1 km/h (4 Bft) W-NW 286 9,6 C 2,3 C 30,6 km/h (5 Bft)
21.05.2019 19:35 10,2 C 96 % 1012,2 hPa 0,0 l/m 24,7 km/h (4 Bft) W 265 9,6 C 2,2 C 33,8 km/h (5 Bft)
21.05.2019 19:30 10,2 C 96 % 1012,2 hPa 0,2 l/m 25,6 km/h (4 Bft) W 278 9,6 C 2,0 C 32,2 km/h (5 Bft)
21.05.2019 19:25 10,3 C 96 % 1012,1 hPa 0,0 l/m 26,8 km/h (4 Bft) W 269 9,7 C 1,8 C 40,2 km/h (6 Bft)
21.05.2019 19:20 10,3 C 96 % 1012,1 hPa 0,2 l/m 25,2 km/h (4 Bft) W 273 9,7 C 2,2 C 33,8 km/h (5 Bft)
21.05.2019 19:15 10,3 C 96 % 1012,0 hPa 0,2 l/m 24,8 km/h (4 Bft) W 277 9,7 C 2,3 C 37,0 km/h (5 Bft)
21.05.2019 19:10 10,3 C 96 % 1012,0 hPa 0,0 l/m 24,8 km/h (4 Bft) W 279 9,7 C 2,3 C 35,4 km/h (5 Bft)
21.05.2019 19:05 10,3 C 96 % 1012,0 hPa 0,0 l/m 25,3 km/h (4 Bft) W-NW 282 9,7 C 2,2 C 38,6 km/h (6 Bft)
21.05.2019 19:00 10,2 C 96 % 1011,9 hPa 0,2 l/m 25,5 km/h (4 Bft) W 266 9,6 C 2,0 C 38,6 km/h (6 Bft)
21.05.2019 18:55 10,2 C 96 % 1012,0 hPa 0,0 l/m 25,0 km/h (4 Bft) W 270 9,6 C 2,1 C 38,6 km/h (6 Bft)
21.05.2019 18:50 10,3 C 95 % 1011,9 hPa 0,2 l/m 29,2 km/h (5 Bft) W-SW 257 9,5 C 1,2 C 41,8 km/h (6 Bft)
21.05.2019 18:45 10,3 C 95 % 1011,9 hPa 0,0 l/m 26,8 km/h (4 Bft) W 264 9,5 C 1,8 C 38,6 km/h (6 Bft)
21.05.2019 18:40 10,3 C 95 % 1011,7 hPa 0,2 l/m 29,3 km/h (5 Bft) W-NW 282 9,5 C 1,2 C 43,5 km/h (6 Bft)
21.05.2019 18:35 10,3 C 95 % 1011,7 hPa 0,0 l/m 32,5 km/h (5 Bft) W 274 9,5 C 0,6 C 43,5 km/h (6 Bft)
21.05.2019 18:30 10,4 C 95 % 1011,6 hPa 0,2 l/m 30,7 km/h (5 Bft) W 273 9,6 C 1,1 C 41,8 km/h (6 Bft)
21.05.2019 18:25 10,4 C 95 % 1011,6 hPa 0,0 l/m 26,2 km/h (4 Bft) W 273 9,6 C 2,1 C 35,4 km/h (5 Bft)
21.05.2019 18:20 10,5 C 95 % 1011,6 hPa 0,2 l/m 29,2 km/h (5 Bft) W-NW 284 9,7 C 1,5 C 40,2 km/h (6 Bft)
21.05.2019 18:15 10,5 C 96 % 1011,5 hPa 0,0 l/m 29,0 km/h (5 Bft) W 271 9,9 C 1,6 C 48,3 km/h (6 Bft)
21.05.2019 18:10 10,5 C 95 % 1011,5 hPa 0,2 l/m 28,3 km/h (5 Bft) W 262 9,7 C 1,7 C 43,5 km/h (6 Bft)
21.05.2019 18:05 10,4 C 95 % 1011,4 hPa 0,0 l/m 28,9 km/h (5 Bft) W 279 9,6 C 1,5 C 41,8 km/h (6 Bft)
21.05.2019 18:00 10,4 C 95 % 1011,3 hPa 0,0 l/m 31,3 km/h (5 Bft) W 265 9,6 C 1,0 C 43,5 km/h (6 Bft)
21.05.2019 17:55 10,4 C 95 % 1011,3 hPa 0,0 l/m 25,9 km/h (4 Bft) W 272 9,6 C 2,1 C 35,4 km/h (5 Bft)
21.05.2019 17:50 10,4 C 95 % 1011,3 hPa 0,2 l/m 28,8 km/h (5 Bft) W 276 9,6 C 1,5 C 40,2 km/h (6 Bft)
21.05.2019 17:45 10,5 C 95 % 1011,3 hPa 0,0 l/m 31,5 km/h (5 Bft) W 272 9,7 C 1,1 C 45,1 km/h (6 Bft)
21.05.2019 17:40 10,5 C 95 % 1011,3 hPa 0,2 l/m 26,8 km/h (4 Bft) W 270 9,7 C 2,1 C 37,0 km/h (5 Bft)
21.05.2019 17:35 10,6 C 95 % 1011,2 hPa 0,0 l/m 23,1 km/h (4 Bft) W 268 9,8 C 3,1 C 37,0 km/h (5 Bft)
21.05.2019 17:30 10,6 C 95 % 1011,2 hPa 0,0 l/m 21,4 km/h (4 Bft) W 266 9,8 C 3,6 C 29,0 km/h (5 Bft)
21.05.2019 17:25 10,6 C 95 % 1011,2 hPa 0,2 l/m 23,5 km/h (4 Bft) W-NW 286 9,8 C 3,0 C 33,8 km/h (5 Bft)
21.05.2019 17:20 10,6 C 95 % 1011,1 hPa 0,2 l/m 26,6 km/h (4 Bft) W-NW 285 9,8 C 2,3 C 38,6 km/h (6 Bft)
21.05.2019 17:15 10,6 C 95 % 1011,0 hPa 0,0 l/m 28,7 km/h (5 Bft) W 265 9,8 C 1,8 C 41,8 km/h (6 Bft)
21.05.2019 17:10 10,7 C 95 % 1011,0 hPa 0,0 l/m 25,3 km/h (4 Bft) W-NW 288 9,9 C 2,7 C 37,0 km/h (5 Bft)
21.05.2019 17:05 10,7 C 95 % 1010,9 hPa 0,0 l/m 26,8 km/h (4 Bft) W 275 9,9 C 2,3 C 37,0 km/h (5 Bft)
21.05.2019 17:00 10,8 C 95 % 1010,8 hPa 0,0 l/m 32,4 km/h (5 Bft) W 267 10,0 C 1,3 C 43,5 km/h (6 Bft)
21.05.2019 16:55 10,9 C 96 % 1010,7 hPa 0,4 l/m 31,3 km/h (5 Bft) W 265 10,3 C 1,7 C 53,1 km/h (7 Bft)
21.05.2019 16:50 10,9 C 96 % 1010,6 hPa 0,0 l/m 31,6 km/h (5 Bft) W 267 10,3 C 1,6 C 43,5 km/h (6 Bft)
21.05.2019 16:45 10,9 C 96 % 1010,6 hPa 0,0 l/m 27,9 km/h (5 Bft) W 276 10,3 C 2,4 C 40,2 km/h (6 Bft)
21.05.2019 16:40 10,8 C 96 % 1010,5 hPa 0,2 l/m 24,6 km/h (4 Bft) W-SW 256 10,2 C 3,0 C 37,0 km/h (5 Bft)
21.05.2019 16:35 10,7 C 96 % 1010,4 hPa 0,0 l/m 29,6 km/h (5 Bft) W 274 10,1 C 1,7 C 45,1 km/h (6 Bft)
21.05.2019 16:30 10,7 C 96 % 1010,4 hPa 0,2 l/m 24,8 km/h (4 Bft) W-SW 256 10,1 C 2,8 C 46,7 km/h (6 Bft)
21.05.2019 16:25 10,7 C 96 % 1010,3 hPa 0,0 l/m 24,1 km/h (4 Bft) W 271 10,1 C 3,0 C 33,8 km/h (5 Bft)
21.05.2019 16:20 10,6 C 96 % 1010,3 hPa 0,0 l/m 29,6 km/h (5 Bft) W 263 10,0 C 1,6 C 40,2 km/h (6 Bft)
21.05.2019 16:15 10,6 C 96 % 1010,2 hPa 0,0 l/m 33,0 km/h (5 Bft) W 264 10,0 C 0,9 C 48,3 km/h (6 Bft)
21.05.2019 16:10 10,7 C 96 % 1010,1 hPa 0,2 l/m 34,1 km/h (5 Bft) W 276 10,1 C 0,9 C 45,1 km/h (6 Bft)
21.05.2019 16:05 10,7 C 96 % 1010,1 hPa 0,0 l/m 28,7 km/h (5 Bft) W 259 10,1 C 1,9 C 43,5 km/h (6 Bft)
21.05.2019 16:00 10,7 C 96 % 1010,0 hPa 0,2 l/m 26,6 km/h (4 Bft) W 267 10,1 C 2,4 C 35,4 km/h (5 Bft)
21.05.2019 15:55 10,7 C 96 % 1010,0 hPa 0,0 l/m 31,3 km/h (5 Bft) W 272 10,1 C 1,4 C 48,3 km/h (6 Bft)
21.05.2019 15:50 10,7 C 96 % 1010,0 hPa 0,2 l/m 27,0 km/h (5 Bft) W-SW 256 10,1 C 2,3 C 45,1 km/h (6 Bft)
21.05.2019 15:45 10,8 C 96 % 1009,9 hPa 0,2 l/m 28,7 km/h (5 Bft) W-SW 257 10,2 C 2,1 C 45,1 km/h (6 Bft)
21.05.2019 15:40 10,8 C 96 % 1009,9 hPa 0,2 l/m 27,1 km/h (5 Bft) W 269 10,2 C 2,4 C 37,0 km/h (5 Bft)
21.05.2019 15:35 10,8 C 96 % 1009,9 hPa 0,2 l/m 23,9 km/h (4 Bft) W 275 10,2 C 3,2 C 33,8 km/h (5 Bft)
21.05.2019 15:30 10,8 C 96 % 1009,7 hPa 0,2 l/m 25,5 km/h (4 Bft) W-SW 250 10,2 C 2,8 C 33,8 km/h (5 Bft)
21.05.2019 15:25 10,8 C 96 % 1009,6 hPa 0,2 l/m 26,7 km/h (4 Bft) W-SW 257 10,2 C 2,5 C 40,2 km/h (6 Bft)
21.05.2019 15:20 10,9 C 96 % 1009,5 hPa 0,2 l/m 26,4 km/h (4 Bft) W 271 10,3 C 2,7 C 33,8 km/h (5 Bft)
21.05.2019 15:15 10,9 C 96 % 1009,4 hPa 0,2 l/m 23,7 km/h (4 Bft) W 269 10,3 C 3,4 C 32,2 km/h (5 Bft)
21.05.2019 15:10 10,9 C 96 % 1009,4 hPa 0,2 l/m 23,1 km/h (4 Bft) W-NW 284 10,3 C 3,5 C 29,0 km/h (5 Bft)
21.05.2019 15:05 10,9 C 96 % 1009,4 hPa 0,2 l/m 23,6 km/h (4 Bft) W 259 10,3 C 3,4 C 30,6 km/h (5 Bft)
21.05.2019 15:00 10,9 C 96 % 1009,3 hPa 0,0 l/m 27,3 km/h (5 Bft) W 279 10,3 C 2,5 C 37,0 km/h (5 Bft)
21.05.2019 14:55 10,9 C 96 % 1009,3 hPa 0,4 l/m 28,0 km/h (5 Bft) W 273 10,3 C 2,3 C 40,2 km/h (6 Bft)
21.05.2019 14:50 10,9 C 96 % 1009,2 hPa 0,0 l/m 29,0 km/h (5 Bft) W-SW 258 10,3 C 2,1 C 41,8 km/h (6 Bft)
21.05.2019 14:45 10,9 C 96 % 1009,1 hPa 0,2 l/m 30,9 km/h (5 Bft) W 269 10,3 C 1,7 C 46,7 km/h (6 Bft)
21.05.2019 14:40 10,9 C 96 % 1009,0 hPa 0,2 l/m 27,8 km/h (5 Bft) W 261 10,3 C 2,4 C 38,6 km/h (6 Bft)
21.05.2019 14:35 10,8 C 96 % 1008,9 hPa 0,4 l/m 27,6 km/h (5 Bft) W 269 10,2 C 2,3 C 37,0 km/h (5 Bft)
21.05.2019 14:30 10,7 C 96 % 1008,8 hPa 0,2 l/m 28,8 km/h (5 Bft) W 266 10,1 C 1,9 C 41,8 km/h (6 Bft)
21.05.2019 14:25 10,7 C 96 % 1008,8 hPa 0,0 l/m 26,2 km/h (4 Bft) W-SW 251 10,1 C 2,5 C 40,2 km/h (6 Bft)
21.05.2019 14:20 10,7 C 96 % 1008,8 hPa 0,2 l/m 25,7 km/h (4 Bft) W 266 10,1 C 2,6 C 35,4 km/h (5 Bft)
21.05.2019 14:15 10,7 C 96 % 1008,8 hPa 0,2 l/m 26,4 km/h (4 Bft) W 267 10,1 C 2,4 C 43,5 km/h (6 Bft)
21.05.2019 14:10 10,7 C 96 % 1008,7 hPa 0,2 l/m 29,2 km/h (5 Bft) W-SW 250 10,1 C 1,8 C 41,8 km/h (6 Bft)
21.05.2019 14:05 10,7 C 96 % 1008,7 hPa 0,4 l/m 24,6 km/h (4 Bft) W-SW 248 10,1 C 2,9 C 32,2 km/h (5 Bft)
21.05.2019 14:00 10,6 C 96 % 1008,6 hPa 0,2 l/m 26,0 km/h (4 Bft) W 269 10,0 C 2,4 C 38,6 km/h (6 Bft)
21.05.2019 13:55 10,6 C 96 % 1008,5 hPa 0,2 l/m 28,2 km/h (5 Bft) W 259 10,0 C 1,9 C 40,2 km/h (6 Bft)
21.05.2019 13:50 10,6 C 96 % 1008,4 hPa 0,4 l/m 31,6 km/h (5 Bft) W 270 10,0 C 1,2 C 43,5 km/h (6 Bft)
21.05.2019 13:45 10,6 C 96 % 1008,3 hPa 0,4 l/m 26,9 km/h (4 Bft) W 273 10,0 C 2,2 C 37,0 km/h (5 Bft)
21.05.2019 13:40 10,6 C 96 % 1008,3 hPa 0,4 l/m 30,5 km/h (5 Bft) W 264 10,0 C 1,4 C 43,5 km/h (6 Bft)
21.05.2019 13:35 10,6 C 96 % 1008,2 hPa 0,4 l/m 28,0 km/h (5 Bft) W-SW 256 10,0 C 1,9 C 38,6 km/h (6 Bft)
21.05.2019 13:30 10,5 C 96 % 1008,2 hPa 0,2 l/m 27,3 km/h (5 Bft) W-SW 257 9,9 C 2,0 C 37,0 km/h (5 Bft)
21.05.2019 13:25 10,5 C 96 % 1008,1 hPa 0,2 l/m 26,6 km/h (4 Bft) W-SW 252 9,9 C 2,1 C 33,8 km/h (5 Bft)
21.05.2019 13:20 10,4 C 96 % 1008,0 hPa 0,4 l/m 30,7 km/h (5 Bft) W 268 9,8 C 1,1 C 43,5 km/h (6 Bft)
21.05.2019 13:15 10,4 C 96 % 1008,0 hPa 0,4 l/m 28,9 km/h (5 Bft) W 262 9,8 C 1,5 C 41,8 km/h (6 Bft)
21.05.2019 13:10 10,4 C 96 % 1008,0 hPa 0,4 l/m 25,9 km/h (4 Bft) W 261 9,8 C 2,1 C 37,0 km/h (5 Bft)
21.05.2019 13:05 10,3 C 96 % 1008,0 hPa 0,4 l/m 34,9 km/h (5 Bft) W-SW 253 9,7 C 0,1 C 46,7 km/h (6 Bft)
21.05.2019 13:00 10,3 C 96 % 1007,9 hPa 0,2 l/m 29,4 km/h (5 Bft) W-SW 257 9,7 C 1,2 C 43,5 km/h (6 Bft)
21.05.2019 12:55 10,3 C 96 % 1007,9 hPa 0,4 l/m 30,4 km/h (5 Bft) W-SW 250 9,7 C 1,0 C 45,1 km/h (6 Bft)
21.05.2019 12:50 10,3 C 96 % 1007,8 hPa 0,4 l/m 27,9 km/h (5 Bft) W-SW 254 9,7 C 1,5 C 40,2 km/h (6 Bft)
21.05.2019 12:45 10,3 C 96 % 1007,8 hPa 0,2 l/m 30,0 km/h (5 Bft) W 259 9,7 C 1,1 C 41,8 km/h (6 Bft)
21.05.2019 12:40 10,3 C 96 % 1007,8 hPa 0,4 l/m 31,3 km/h (5 Bft) W 272 9,7 C 0,8 C 49,9 km/h (7 Bft)
21.05.2019 12:35 10,3 C 96 % 1007,7 hPa 0,4 l/m 27,2 km/h (5 Bft) W-SW 243 9,7 C 1,7 C 46,7 km/h (6 Bft)
21.05.2019 12:30 10,3 C 96 % 1007,6 hPa 0,4 l/m 28,6 km/h (5 Bft) W-SW 254 9,7 C 1,4 C 41,8 km/h (6 Bft)
21.05.2019 12:25 10,3 C 96 % 1007,6 hPa 0,4 l/m 28,4 km/h (5 Bft) W 267 9,7 C 1,4 C 40,2 km/h (6 Bft)
21.05.2019 12:20 10,3 C 96 % 1007,6 hPa 0,4 l/m 31,9 km/h (5 Bft) W-SW 252 9,7 C 0,7 C 46,7 km/h (6 Bft)
21.05.2019 12:15 10,4 C 96 % 1007,5 hPa 0,4 l/m 30,8 km/h (5 Bft) W-SW 252 9,8 C 1,1 C 49,9 km/h (7 Bft)
21.05.2019 12:10 10,4 C 96 % 1007,4 hPa 0,2 l/m 33,0 km/h (5 Bft) W-SW 247 9,8 C 0,6 C 46,7 km/h (6 Bft)
21.05.2019 12:05 10,3 C 96 % 1007,3 hPa 0,2 l/m 29,9 km/h (5 Bft) W-SW 238 9,7 C 1,1 C 41,8 km/h (6 Bft)
21.05.2019 12:00 10,3 C 96 % 1007,2 hPa 0,2 l/m 30,1 km/h (5 Bft) W-SW 239 9,7 C 1,1 C 41,8 km/h (6 Bft)
21.05.2019 11:55 10,3 C 96 % 1007,2 hPa 0,2 l/m 30,2 km/h (5 Bft) W 271 9,7 C 1,0 C 43,5 km/h (6 Bft)
21.05.2019 11:50 10,2 C 96 % 1007,2 hPa 0,2 l/m 27,2 km/h (5 Bft) W 270 9,6 C 1,6 C 37,0 km/h (5 Bft)
21.05.2019 11:45 10,2 C 96 % 1007,2 hPa 0,2 l/m 23,4 km/h (4 Bft) W 262 9,6 C 2,5 C 33,8 km/h (5 Bft)
21.05.2019 11:40 10,2 C 96 % 1007,2 hPa 0,2 l/m 23,6 km/h (4 Bft) W-SW 244 9,6 C 2,5 C 33,8 km/h (5 Bft)
21.05.2019 11:35 10,1 C 96 % 1007,1 hPa 0,2 l/m 22,0 km/h (4 Bft) W-SW 252 9,5 C 2,8 C 29,0 km/h (5 Bft)
21.05.2019 11:30 10,1 C 96 % 1007,1 hPa 0,2 l/m 26,0 km/h (4 Bft) W-SW 255 9,5 C 1,7 C 33,8 km/h (5 Bft)
21.05.2019 11:25 10,1 C 96 % 1007,1 hPa 0,2 l/m 27,3 km/h (5 Bft) W 261 9,5 C 1,4 C 38,6 km/h (6 Bft)
21.05.2019 11:20 10,1 C 96 % 1007,1 hPa 0,0 l/m 26,5 km/h (4 Bft) SW 234 9,5 C 1,6 C 38,6 km/h (6 Bft)
21.05.2019 11:15 10,0 C 96 % 1007,1 hPa 0,2 l/m 26,7 km/h (4 Bft) W-SW 239 9,4 C 1,4 C 35,4 km/h (5 Bft)
21.05.2019 11:10 10,0 C 96 % 1007,0 hPa 0,0 l/m 26,7 km/h (4 Bft) W-SW 243 9,4 C 1,4 C 35,4 km/h (5 Bft)
21.05.2019 11:05 9,9 C 96 % 1007,0 hPa 0,2 l/m 28,7 km/h (5 Bft) W-SW 242 9,3 C 0,8 C 41,8 km/h (6 Bft)
21.05.2019 11:00 9,9 C 96 % 1007,0 hPa 0,2 l/m 29,9 km/h (5 Bft) SW 227 9,3 C 0,5 C 40,2 km/h (6 Bft)
21.05.2019 10:55 9,9 C 96 % 1006,9 hPa 0,4 l/m 30,5 km/h (5 Bft) W-SW 248 9,3 C 0,4 C 41,8 km/h (6 Bft)
21.05.2019 10:50 9,9 C 96 % 1006,9 hPa 0,2 l/m 26,8 km/h (4 Bft) W-SW 241 9,3 C 1,2 C 33,8 km/h (5 Bft)
21.05.2019 10:45 9,9 C 96 % 1006,9 hPa 0,2 l/m 30,4 km/h (5 Bft) W-SW 244 9,3 C 0,4 C 43,5 km/h (6 Bft)
21.05.2019 10:40 9,9 C 96 % 1006,8 hPa 0,2 l/m 27,7 km/h (5 Bft) W-SW 249 9,3 C 1,0 C 38,6 km/h (6 Bft)
21.05.2019 10:35 10,0 C 96 % 1006,8 hPa 0,2 l/m 28,3 km/h (5 Bft) W-SW 242 9,4 C 1,0 C 35,4 km/h (5 Bft)
21.05.2019 10:30 10,0 C 96 % 1006,8 hPa 0,2 l/m 29,5 km/h (5 Bft) W-SW 243 9,4 C 0,8 C 43,5 km/h (6 Bft)
21.05.2019 10:25 10,0 C 96 % 1006,7 hPa 0,2 l/m 29,6 km/h (5 Bft) W-SW 258 9,4 C 0,7 C 43,5 km/h (6 Bft)
21.05.2019 10:20 10,0 C 96 % 1006,6 hPa 0,2 l/m 31,1 km/h (5 Bft) W-SW 242 9,4 C 0,4 C 45,1 km/h (6 Bft)
21.05.2019 10:15 9,9 C 96 % 1006,7 hPa 0,0 l/m 28,4 km/h (5 Bft) SW 232 9,3 C 0,9 C 40,2 km/h (6 Bft)
21.05.2019 10:10 9,9 C 96 % 1006,6 hPa 0,0 l/m 27,5 km/h (5 Bft) W-SW 248 9,3 C 1,1 C 38,6 km/h (6 Bft)
21.05.2019 10:05 9,8 C 96 % 1006,6 hPa 0,2 l/m 27,8 km/h (5 Bft) SW 235 9,2 C 0,9 C 35,4 km/h (5 Bft)
21.05.2019 10:00 9,8 C 96 % 1006,6 hPa 0,2 l/m 28,1 km/h (5 Bft) SW 234 9,2 C 0,8 C 38,6 km/h (6 Bft)
21.05.2019 09:55 9,7 C 96 % 1006,6 hPa 0,4 l/m 25,4 km/h (4 Bft) SW 227 9,1 C 1,3 C 37,0 km/h (5 Bft)
21.05.2019 09:50 9,7 C 96 % 1006,6 hPa 0,2 l/m 24,4 km/h (4 Bft) W-SW 248 9,1 C 1,6 C 33,8 km/h (5 Bft)
21.05.2019 09:45 9,7 C 96 % 1006,6 hPa 0,2 l/m 24,9 km/h (4 Bft) W-SW 248 9,1 C 1,5 C 35,4 km/h (5 Bft)
21.05.2019 09:40 9,7 C 96 % 1006,6 hPa 0,4 l/m 24,9 km/h (4 Bft) SW 226 9,1 C 1,5 C 35,4 km/h (5 Bft)
21.05.2019 09:35 9,8 C 96 % 1006,7 hPa 0,2 l/m 21,5 km/h (4 Bft) SW 236 9,2 C 2,6 C 30,6 km/h (5 Bft)
21.05.2019 09:30 9,8 C 96 % 1006,6 hPa 0,2 l/m 22,1 km/h (4 Bft) SW 230 9,2 C 2,4 C 33,8 km/h (5 Bft)
21.05.2019 09:25 9,8 C 96 % 1006,6 hPa 0,2 l/m 22,8 km/h (4 Bft) SW 233 9,2 C 2,2 C 29,0 km/h (5 Bft)
21.05.2019 09:20 9,8 C 96 % 1006,5 hPa 0,2 l/m 25,4 km/h (4 Bft) SW 219 9,2 C 1,5 C 30,6 km/h (5 Bft)
21.05.2019 09:15 9,7 C 96 % 1006,5 hPa 0,0 l/m 25,4 km/h (4 Bft) W-SW 240 9,1 C 1,3 C 32,2 km/h (5 Bft)
21.05.2019 09:10 9,7 C 96 % 1006,5 hPa 0,2 l/m 25,5 km/h (4 Bft) SW 234 9,1 C 1,3 C 37,0 km/h (5 Bft)
21.05.2019 09:05 9,7 C 96 % 1006,4 hPa 0,2 l/m 23,8 km/h (4 Bft) SW 232 9,1 C 1,8 C 38,6 km/h (6 Bft)
21.05.2019 09:00 9,7 C 96 % 1006,5 hPa 0,0 l/m 25,7 km/h (4 Bft) SW 236 9,1 C 1,2 C 38,6 km/h (6 Bft)
21.05.2019 08:55 9,7 C 96 % 1006,5 hPa 0,4 l/m 21,3 km/h (4 Bft) W-SW 246 9,1 C 2,5 C 30,6 km/h (5 Bft)
21.05.2019 08:50 9,7 C 96 % 1006,5 hPa 0,2 l/m 23,4 km/h (4 Bft) W-SW 248 9,1 C 1,9 C 32,2 km/h (5 Bft)
21.05.2019 08:45 9,7 C 96 % 1006,6 hPa 0,4 l/m 21,0 km/h (4 Bft) W-SW 249 9,1 C 2,6 C 27,4 km/h (5 Bft)
21.05.2019 08:40 9,7 C 96 % 1006,4 hPa 0,2 l/m 25,8 km/h (4 Bft) W-SW 244 9,1 C 1,2 C 35,4 km/h (5 Bft)
21.05.2019 08:35 9,7 C 96 % 1006,4 hPa 0,4 l/m 22,8 km/h (4 Bft) W-SW 242 9,1 C 2,0 C 30,6 km/h (5 Bft)
21.05.2019 08:30 9,7 C 96 % 1006,4 hPa 0,0 l/m 27,8 km/h (5 Bft) W-SW 242 9,1 C 0,7 C 41,8 km/h (6 Bft)
21.05.2019 08:25 9,7 C 96 % 1006,4 hPa 0,2 l/m 30,0 km/h (5 Bft) W-SW 246 9,1 C 0,2 C 43,5 km/h (6 Bft)
21.05.2019 08:20 9,8 C 96 % 1006,4 hPa 0,2 l/m 26,9 km/h (4 Bft) W-SW 241 9,2 C 1,1 C 35,4 km/h (5 Bft)
21.05.2019 08:15 9,7 C 96 % 1006,3 hPa 0,2 l/m 28,7 km/h (5 Bft) W-SW 257 9,1 C 0,5 C 41,8 km/h (6 Bft)
21.05.2019 08:10 9,7 C 96 % 1006,3 hPa 0,2 l/m 29,2 km/h (5 Bft) W-SW 258 9,1 C 0,4 C 41,8 km/h (6 Bft)
21.05.2019 08:05 9,8 C 96 % 1006,3 hPa 0,0 l/m 25,8 km/h (4 Bft) W-SW 254 9,2 C 1,4 C 32,2 km/h (5 Bft)
21.05.2019 08:00 9,8 C 96 % 1006,2 hPa 0,2 l/m 24,2 km/h (4 Bft) W-SW 244 9,2 C 1,8 C 32,2 km/h (5 Bft)
21.05.2019 07:55 9,7 C 96 % 1006,2 hPa 0,2 l/m 25,9 km/h (4 Bft) W-SW 257 9,1 C 1,2 C 37,0 km/h (5 Bft)
21.05.2019 07:50 9,8 C 96 % 1006,1 hPa 0,0 l/m 27,0 km/h (5 Bft) W-SW 241 9,2 C 1,1 C 37,0 km/h (5 Bft)
21.05.2019 07:45 9,8 C 96 % 1006,1 hPa 0,2 l/m 26,9 km/h (4 Bft) W-SW 257 9,2 C 1,1 C 38,6 km/h (6 Bft)
21.05.2019 07:40 9,8 C 96 % 1006,0 hPa 0,2 l/m 25,3 km/h (4 Bft) W-SW 254 9,2 C 1,5 C 35,4 km/h (5 Bft)
21.05.2019 07:35 9,8 C 96 % 1006,0 hPa 0,0 l/m 25,3 km/h (4 Bft) W-SW 254 9,2 C 1,5 C 37,0 km/h (5 Bft)
21.05.2019 07:30 9,8 C 96 % 1006,0 hPa 0,2 l/m 24,9 km/h (4 Bft) SW 222 9,2 C 1,6 C 32,2 km/h (5 Bft)
21.05.2019 07:25 9,8 C 97 % 1006,0 hPa 0,0 l/m 28,3 km/h (5 Bft) W 269 9,3 C 0,8 C 40,2 km/h (6 Bft)
21.05.2019 07:20 9,7 C 97 % 1005,9 hPa 0,2 l/m 28,2 km/h (5 Bft) W-SW 250 9,2 C 0,6 C 35,4 km/h (5 Bft)
21.05.2019 07:15 9,8 C 97 % 1005,9 hPa 0,0 l/m 27,7 km/h (5 Bft) W 259 9,3 C 0,9 C 35,4 km/h (5 Bft)
21.05.2019 07:10 9,8 C 97 % 1005,9 hPa 0,2 l/m 28,9 km/h (5 Bft) W 259 9,3 C 0,6 C 38,6 km/h (6 Bft)
21.05.2019 07:05 9,8 C 97 % 1005,8 hPa 0,0 l/m 27,1 km/h (5 Bft) W 259 9,3 C 1,0 C 33,8 km/h (5 Bft)
21.05.2019 07:00 9,8 C 97 % 1005,9 hPa 0,2 l/m 25,5 km/h (4 Bft) W 269 9,3 C 1,4 C 33,8 km/h (5 Bft)
21.05.2019 06:55 9,8 C 97 % 1005,9 hPa 0,0 l/m 31,1 km/h (5 Bft) W 266 9,3 C 0,1 C 40,2 km/h (6 Bft)
21.05.2019 06:50 9,8 C 97 % 1005,9 hPa 0,0 l/m 29,9 km/h (5 Bft) W 261 9,3 C 0,4 C 45,1 km/h (6 Bft)
21.05.2019 06:45 9,8 C 97 % 1005,8 hPa 0,0 l/m 28,4 km/h (5 Bft) W 271 9,3 C 0,7 C 37,0 km/h (5 Bft)
21.05.2019 06:40 9,8 C 97 % 1005,7 hPa 0,0 l/m 27,5 km/h (5 Bft) W-SW 242 9,3 C 0,9 C 35,4 km/h (5 Bft)
21.05.2019 06:35 9,8 C 97 % 1005,7 hPa 0,0 l/m 29,0 km/h (5 Bft) W 266 9,3 C 0,6 C 41,8 km/h (6 Bft)
21.05.2019 06:30 9,8 C 97 % 1005,6 hPa 0,0 l/m 28,5 km/h (5 Bft) W 260 9,3 C 0,7 C 38,6 km/h (6 Bft)
21.05.2019 06:25 9,8 C 96 % 1005,5 hPa 0,2 l/m 27,0 km/h (5 Bft) W 261 9,2 C 1,1 C 43,5 km/h (6 Bft)
21.05.2019 06:20 9,8 C 96 % 1005,5 hPa 0,0 l/m 30,7 km/h (5 Bft) W-SW 257 9,2 C 0,2 C 41,8 km/h (6 Bft)
21.05.2019 06:15 9,8 C 96 % 1005,6 hPa 0,0 l/m 25,1 km/h (4 Bft) W-SW 255 9,2 C 1,5 C 37,0 km/h (5 Bft)
21.05.2019 06:10 9,8 C 96 % 1005,5 hPa 0,0 l/m 28,2 km/h (5 Bft) W-SW 253 9,2 C 0,8 C 38,6 km/h (6 Bft)
21.05.2019 06:05 9,8 C 96 % 1005,5 hPa 0,0 l/m 29,5 km/h (5 Bft) W-SW 246 9,2 C 0,5 C 45,1 km/h (6 Bft)
21.05.2019 06:00 9,8 C 96 % 1005,4 hPa 0,2 l/m 32,7 km/h (5 Bft) W 265 9,2 C -0,2 C 46,7 km/h (6 Bft)
21.05.2019 05:55 9,8 C 96 % 1005,4 hPa 0,0 l/m 34,1 km/h (5 Bft) W 263 9,2 C -0,4 C 46,7 km/h (6 Bft)
21.05.2019 05:50 9,8 C 96 % 1005,3 hPa 0,0 l/m 36,0 km/h (5 Bft) W-SW 248 9,2 C -0,8 C 51,5 km/h (7 Bft)
21.05.2019 05:45 9,8 C 96 % 1005,2 hPa 0,0 l/m 34,9 km/h (5 Bft) W 265 9,2 C -0,6 C 49,9 km/h (7 Bft)
21.05.2019 05:40 9,8 C 96 % 1005,3 hPa 0,0 l/m 32,1 km/h (5 Bft) W 265 9,2 C -0,1 C 45,1 km/h (6 Bft)
21.05.2019 05:35 9,8 C 96 % 1005,1 hPa 0,2 l/m 30,8 km/h (5 Bft) W-SW 242 9,2 C 0,2 C 45,1 km/h (6 Bft)
21.05.2019 05:30 9,9 C 96 % 1005,2 hPa 0,0 l/m 37,1 km/h (5 Bft) W 279 9,3 C -0,8 C 53,1 km/h (7 Bft)
21.05.2019 05:25 9,9 C 96 % 1005,3 hPa 0,0 l/m 33,3 km/h (5 Bft) W 268 9,3 C -0,1 C 46,7 km/h (6 Bft)
21.05.2019 05:20 9,9 C 96 % 1005,1 hPa 0,0 l/m 35,1 km/h (5 Bft) W 271 9,3 C -0,5 C 48,3 km/h (6 Bft)
21.05.2019 05:15 9,9 C 96 % 1005,0 hPa 0,2 l/m 34,7 km/h (5 Bft) W-SW 257 9,3 C -0,4 C 51,5 km/h (7 Bft)
21.05.2019 05:10 9,9 C 96 % 1005,0 hPa 0,0 l/m 31,6 km/h (5 Bft) SW 234 9,3 C 0,2 C 45,1 km/h (6 Bft)
21.05.2019 05:05 9,9 C 96 % 1004,9 hPa 0,2 l/m 26,2 km/h (4 Bft) W-SW 255 9,3 C 1,4 C 33,8 km/h (5 Bft)
21.05.2019 05:00 10,0 C 96 % 1004,9 hPa 0,2 l/m 28,4 km/h (5 Bft) W 265 9,4 C 1,0 C 37,0 km/h (5 Bft)
21.05.2019 04:55 10,0 C 96 % 1004,9 hPa 0,2 l/m 31,2 km/h (5 Bft) W 260 9,4 C 0,4 C 41,8 km/h (6 Bft)
21.05.2019 04:50 10,1 C 96 % 1004,8 hPa 0,2 l/m 30,3 km/h (5 Bft) W 261 9,5 C 0,7 C 41,8 km/h (6 Bft)
21.05.2019 04:45 10,1 C 96 % 1005,0 hPa 0,0 l/m 25,8 km/h (4 Bft) W 262 9,5 C 1,8 C 38,6 km/h (6 Bft)
21.05.2019 04:40 10,1 C 96 % 1004,9 hPa 0,4 l/m 25,7 km/h (4 Bft) W 267 9,5 C 1,8 C 37,0 km/h (5 Bft)
21.05.2019 04:35 10,1 C 96 % 1005,0 hPa 0,0 l/m 27,7 km/h (5 Bft) W 259 9,5 C 1,3 C 40,2 km/h (6 Bft)
21.05.2019 04:30 10,2 C 96 % 1004,9 hPa 0,2 l/m 28,8 km/h (5 Bft) W 261 9,6 C 1,2 C 40,2 km/h (6 Bft)
21.05.2019 04:25 10,2 C 96 % 1004,9 hPa 0,2 l/m 27,8 km/h (5 Bft) W 270 9,6 C 1,4 C 43,5 km/h (6 Bft)
21.05.2019 04:20 10,2 C 96 % 1004,9 hPa 0,0 l/m 24,5 km/h (4 Bft) W-SW 257 9,6 C 2,2 C 35,4 km/h (5 Bft)
21.05.2019 04:15 10,3 C 96 % 1004,9 hPa 0,4 l/m 27,6 km/h (5 Bft) W 268 9,7 C 1,6 C 35,4 km/h (5 Bft)
21.05.2019 04:10 10,3 C 96 % 1004,9 hPa 0,4 l/m 30,7 km/h (5 Bft) W 263 9,7 C 0,9 C 45,1 km/h (6 Bft)
21.05.2019 04:00 10,4 C 97 % 1004,8 hPa 0,4 l/m 32,8 km/h (5 Bft) W 266 9,9 C 0,7 C 46,7 km/h (6 Bft)
21.05.2019 03:55 10,4 C 97 % 1004,7 hPa 0,4 l/m 33,0 km/h (5 Bft) W-SW 257 9,9 C 0,6 C 45,1 km/h (6 Bft)
21.05.2019 03:50 10,4 C 97 % 1004,8 hPa 0,2 l/m 27,9 km/h (5 Bft) W-SW 252 9,9 C 1,7 C 37,0 km/h (5 Bft)
21.05.2019 03:45 10,5 C 97 % 1004,8 hPa 0,4 l/m 28,1 km/h (5 Bft) W-SW 258 10,0 C 1,8 C 41,8 km/h (6 Bft)
21.05.2019 03:40 10,6 C 97 % 1004,7 hPa 0,2 l/m 24,7 km/h (4 Bft) W-SW 251 10,1 C 2,7 C 32,2 km/h (5 Bft)
21.05.2019 03:35 10,6 C 97 % 1004,7 hPa 0,2 l/m 24,5 km/h (4 Bft) W 259 10,1 C 2,8 C 32,2 km/h (5 Bft)
21.05.2019 03:30 10,6 C 97 % 1004,7 hPa 0,2 l/m 28,7 km/h (5 Bft) W 261 10,1 C 1,8 C 41,8 km/h (6 Bft)
21.05.2019 03:25 10,7 C 97 % 1004,7 hPa 0,2 l/m 27,0 km/h (5 Bft) W 269 10,2 C 2,3 C 41,8 km/h (6 Bft)
21.05.2019 03:20 10,7 C 97 % 1004,7 hPa 0,2 l/m 32,4 km/h (5 Bft) W 279 10,2 C 1,2 C 41,8 km/h (6 Bft)
21.05.2019 03:15 10,7 C 97 % 1004,7 hPa 0,2 l/m 29,0 km/h (5 Bft) W 271 10,2 C 1,9 C 40,2 km/h (6 Bft)
21.05.2019 03:10 10,7 C 97 % 1004,7 hPa 0,4 l/m 26,4 km/h (4 Bft) W 269 10,2 C 2,4 C 33,8 km/h (5 Bft)
21.05.2019 03:05 10,7 C 97 % 1004,7 hPa 0,2 l/m 27,7 km/h (5 Bft) W 261 10,2 C 2,1 C 38,6 km/h (6 Bft)
21.05.2019 03:00 10,7 C 97 % 1004,6 hPa 0,0 l/m 29,9 km/h (5 Bft) W 259 10,2 C 1,7 C 45,1 km/h (6 Bft)
21.05.2019 02:55 10,6 C 97 % 1004,7 hPa 0,0 l/m 31,7 km/h (5 Bft) W 260 10,1 C 1,2 C 46,7 km/h (6 Bft)
21.05.2019 02:50 10,6 C 97 % 1004,6 hPa 0,0 l/m 24,9 km/h (4 Bft) W 267 10,1 C 2,7 C 40,2 km/h (6 Bft)
21.05.2019 02:45 10,6 C 97 % 1004,7 hPa 0,2 l/m 30,4 km/h (5 Bft) W-NW 295 10,1 C 1,4 C 49,9 km/h (7 Bft)
21.05.2019 02:40 10,6 C 97 % 1004,6 hPa 0,0 l/m 35,3 km/h (5 Bft) W 265 10,1 C 0,5 C 49,9 km/h (7 Bft)
21.05.2019 02:35 10,6 C 97 % 1004,5 hPa 0,2 l/m 31,3 km/h (5 Bft) W-SW 255 10,1 C 1,2 C 40,2 km/h (6 Bft)
21.05.2019 02:30 10,6 C 97 % 1004,5 hPa 0,0 l/m 35,1 km/h (5 Bft) W 279 10,1 C 0,5 C 49,9 km/h (7 Bft)
21.05.2019 02:25 10,6 C 97 % 1004,6 hPa 0,0 l/m 30,5 km/h (5 Bft) W 279 10,1 C 1,4 C 46,7 km/h (6 Bft)
21.05.2019 02:20 10,6 C 97 % 1004,4 hPa 0,0 l/m 36,1 km/h (5 Bft) W 276 10,1 C 0,4 C 49,9 km/h (7 Bft)
21.05.2019 02:15 10,6 C 97 % 1004,4 hPa 0,0 l/m 39,4 km/h (6 Bft) W 265 10,1 C -0,1 C 48,3 km/h (6 Bft)
21.05.2019 02:10 10,6 C 97 % 1004,4 hPa 0,0 l/m 33,9 km/h (5 Bft) W-NW 283 10,1 C 0,8 C 49,9 km/h (7 Bft)
21.05.2019 02:05 10,6 C 97 % 1004,4 hPa 0,2 l/m 28,8 km/h (5 Bft) W-SW 257 10,1 C 1,8 C 41,8 km/h (6 Bft)
21.05.2019 02:00 10,6 C 97 % 1004,6 hPa 0,2 l/m 28,4 km/h (5 Bft) W 273 10,1 C 1,8 C 40,2 km/h (6 Bft)
21.05.2019 01:55 10,6 C 97 % 1004,4 hPa 0,0 l/m 33,7 km/h (5 Bft) W 260 10,1 C 0,8 C 51,5 km/h (7 Bft)
21.05.2019 01:50 10,7 C 97 % 1004,4 hPa 0,2 l/m 37,0 km/h (5 Bft) W 267 10,2 C 0,4 C 51,5 km/h (7 Bft)
21.05.2019 01:45 10,7 C 97 % 1004,4 hPa 0,2 l/m 33,0 km/h (5 Bft) W 266 10,2 C 1,1 C 45,1 km/h (6 Bft)
21.05.2019 01:40 10,7 C 97 % 1004,4 hPa 0,0 l/m 34,0 km/h (5 Bft) W 262 10,2 C 0,9 C 51,5 km/h (7 Bft)
21.05.2019 01:35 10,7 C 97 % 1004,5 hPa 0,0 l/m 28,7 km/h (5 Bft) W-NW 293 10,2 C 1,9 C 41,8 km/h (6 Bft)
21.05.2019 01:30 10,6 C 97 % 1004,4 hPa 0,0 l/m 32,6 km/h (5 Bft) W 265 10,1 C 1,0 C 45,1 km/h (6 Bft)
21.05.2019 01:25 10,6 C 97 % 1004,6 hPa 0,2 l/m 36,4 km/h (5 Bft) W 261 10,1 C 0,3 C 45,1 km/h (6 Bft)
21.05.2019 01:20 10,6 C 97 % 1004,6 hPa 0,0 l/m 28,3 km/h (5 Bft) W 271 10,1 C 1,9 C 40,2 km/h (6 Bft)
21.05.2019 01:15 10,6 C 97 % 1004,5 hPa 0,2 l/m 27,9 km/h (5 Bft) W 274 10,1 C 2,0 C 40,2 km/h (6 Bft)
21.05.2019 01:10 10,6 C 97 % 1004,4 hPa 0,8 l/m 31,1 km/h (5 Bft) W 276 10,1 C 1,3 C 45,1 km/h (6 Bft)
21.05.2019 01:05 10,6 C 97 % 1004,5 hPa 0,2 l/m 32,5 km/h (5 Bft) W 279 10,1 C 1,0 C 48,3 km/h (6 Bft)
21.05.2019 01:00 10,6 C 97 % 1004,5 hPa 0,0 l/m 34,1 km/h (5 Bft) W 275 10,1 C 0,7 C 48,3 km/h (6 Bft)
21.05.2019 00:55 10,6 C 97 % 1004,5 hPa 0,0 l/m 29,2 km/h (5 Bft) W 263 10,1 C 1,7 C 43,5 km/h (6 Bft)
21.05.2019 00:50 10,7 C 97 % 1004,5 hPa 0,0 l/m 30,5 km/h (5 Bft) W 275 10,2 C 1,5 C 41,8 km/h (6 Bft)
21.05.2019 00:45 10,7 C 97 % 1004,6 hPa 0,2 l/m 21,9 km/h (4 Bft) W 261 10,2 C 3,6 C 32,2 km/h (5 Bft)
21.05.2019 00:40 10,7 C 97 % 1004,6 hPa 0,0 l/m 26,0 km/h (4 Bft) W 281 10,2 C 2,5 C 35,4 km/h (5 Bft)
21.05.2019 00:35 10,7 C 97 % 1004,5 hPa 0,0 l/m 31,4 km/h (5 Bft) W 266 10,2 C 1,4 C 48,3 km/h (6 Bft)
21.05.2019 00:30 10,7 C 97 % 1004,5 hPa 0,4 l/m 29,6 km/h (5 Bft) W 272 10,2 C 1,7 C 41,8 km/h (6 Bft)
21.05.2019 00:25 10,8 C 97 % 1004,4 hPa 0,2 l/m 30,0 km/h (5 Bft) W 264 10,3 C 1,8 C 38,6 km/h (6 Bft)
21.05.2019 00:20 10,8 C 97 % 1004,5 hPa 0,0 l/m 30,8 km/h (5 Bft) W 281 10,3 C 1,6 C 45,1 km/h (6 Bft)
21.05.2019 00:15 10,8 C 97 % 1004,3 hPa 0,0 l/m 31,4 km/h (5 Bft) W 261 10,3 C 1,5 C 45,1 km/h (6 Bft)
21.05.2019 00:10 10,8 C 97 % 1004,4 hPa 0,0 l/m 30,9 km/h (5 Bft) W-SW 258 10,3 C 1,6 C 46,7 km/h (6 Bft)
21.05.2019 00:05 10,8 C 97 % 1004,5 hPa 0,0 l/m 30,5 km/h (5 Bft) W 267 10,3 C 1,7 C 46,7 km/h (6 Bft)
21.05.2019 00:00 10,8 C 97 % 1004,5 hPa 0,2 l/m 21,6 km/h (4 Bft) W 273 10,3 C 3,8 C 35,4 km/h (5 Bft)
20.05.2019 23:55 10,8 C 97 % 1004,4 hPa 0,2 l/m 27,7 km/h (5 Bft) W 279 10,3 C 2,3 C 40,2 km/h (6 Bft)
20.05.2019 23:50 10,9 C 97 % 1004,4 hPa 0,2 l/m 32,5 km/h (5 Bft) W 271 10,4 C 1,4 C 45,1 km/h (6 Bft)
20.05.2019 23:45 10,9 C 97 % 1004,4 hPa 0,4 l/m 29,2 km/h (5 Bft) W 277 10,4 C 2,1 C 40,2 km/h (6 Bft)
20.05.2019 23:40 10,9 C 96 % 1004,5 hPa 0,2 l/m 25,7 km/h (4 Bft) W 271 10,3 C 2,9 C 40,2 km/h (6 Bft)
20.05.2019 23:35 10,9 C 96 % 1004,5 hPa 0,8 l/m 23,1 km/h (4 Bft) W 266 10,3 C 3,5 C 37,0 km/h (5 Bft)
20.05.2019 23:30 11,0 C 96 % 1004,6 hPa 0,4 l/m 24,2 km/h (4 Bft) W 273 10,4 C 3,4 C 35,4 km/h (5 Bft)
20.05.2019 23:25 11,0 C 96 % 1004,5 hPa 0,8 l/m 22,1 km/h (4 Bft) W 275 10,4 C 4,0 C 30,6 km/h (5 Bft)
20.05.2019 23:20 11,0 C 96 % 1004,4 hPa 0,8 l/m 26,4 km/h (4 Bft) W-NW 288 10,4 C 2,8 C 41,8 km/h (6 Bft)
20.05.2019 23:15 11,1 C 96 % 1004,4 hPa 1,6 l/m 23,4 km/h (4 Bft) W 273 10,5 C 3,7 C 35,4 km/h (5 Bft)
20.05.2019 23:10 11,1 C 96 % 1004,4 hPa 1,2 l/m 25,3 km/h (4 Bft) W-NW 290 10,5 C 3,2 C 45,1 km/h (6 Bft)
20.05.2019 23:05 11,1 C 96 % 1004,4 hPa 0,4 l/m 29,8 km/h (5 Bft) W 271 10,5 C 2,2 C 43,5 km/h (6 Bft)
20.05.2019 23:00 11,2 C 96 % 1004,3 hPa 0,4 l/m 31,2 km/h (5 Bft) W 265 10,6 C 2,1 C 48,3 km/h (6 Bft)
20.05.2019 22:55 11,2 C 96 % 1004,2 hPa 0,2 l/m 25,4 km/h (4 Bft) W 261 10,6 C 3,4 C 37,0 km/h (5 Bft)
20.05.2019 22:50 11,3 C 96 % 1004,1 hPa 0,4 l/m 19,5 km/h (3 Bft) W 273 10,7 C 5,1 C 29,0 km/h (5 Bft)
20.05.2019 22:45 11,3 C 96 % 1004,1 hPa 0,4 l/m 26,4 km/h (4 Bft) W 279 10,7 C 3,3 C 37,0 km/h (5 Bft)
20.05.2019 22:40 11,3 C 96 % 1004,1 hPa 0,2 l/m 20,7 km/h (4 Bft) W-NW 283 10,7 C 4,8 C 29,0 km/h (5 Bft)
20.05.2019 22:35 11,3 C 96 % 1004,1 hPa 0,4 l/m 18,2 km/h (3 Bft) W 276 10,7 C 5,5 C 22,5 km/h (4 Bft)
20.05.2019 22:30 11,4 C 97 % 1004,1 hPa 0,6 l/m 21,5 km/h (4 Bft) W 281 10,9 C 4,7 C 32,2 km/h (5 Bft)
20.05.2019 22:25 11,4 C 96 % 1004,1 hPa 0,2 l/m 21,0 km/h (4 Bft) W-NW 292 10,8 C 4,8 C 27,4 km/h (5 Bft)
20.05.2019 22:20 11,4 C 96 % 1004,2 hPa 0,0 l/m 21,1 km/h (4 Bft) W-NW 286 10,8 C 4,8 C 32,2 km/h (5 Bft)
20.05.2019 22:15 11,4 C 96 % 1004,2 hPa 0,2 l/m 23,5 km/h (4 Bft) W 269 10,8 C 4,1 C 35,4 km/h (5 Bft)
20.05.2019 22:10 11,4 C 96 % 1004,1 hPa 0,0 l/m 27,6 km/h (5 Bft) W 276 10,8 C 3,1 C 40,2 km/h (6 Bft)
20.05.2019 22:05 11,4 C 96 % 1004,0 hPa 0,0 l/m 24,1 km/h (4 Bft) W 259 10,8 C 4,0 C 32,2 km/h (5 Bft)
20.05.2019 22:00 11,4 C 96 % 1004,1 hPa 0,2 l/m 26,2 km/h (4 Bft) W-NW 291 10,8 C 3,4 C 40,2 km/h (6 Bft)
20.05.2019 21:55 11,5 C 96 % 1004,0 hPa 0,0 l/m 26,2 km/h (4 Bft) W-NW 284 10,9 C 3,6 C 33,8 km/h (5 Bft)
20.05.2019 21:50 11,4 C 96 % 1004,0 hPa 0,0 l/m 26,1 km/h (4 Bft) W-NW 298 10,8 C 3,5 C 45,1 km/h (6 Bft)
20.05.2019 21:45 11,4 C 96 % 1003,9 hPa 0,0 l/m 26,6 km/h (4 Bft) W 280 10,8 C 3,4 C 41,8 km/h (6 Bft)
20.05.2019 21:40 11,5 C 96 % 1004,0 hPa 0,0 l/m 23,4 km/h (4 Bft) W-NW 283 10,9 C 4,3 C 40,2 km/h (6 Bft)
20.05.2019 21:35 11,5 C 96 % 1004,0 hPa 0,0 l/m 25,1 km/h (4 Bft) W 281 10,9 C 3,8 C 37,0 km/h (5 Bft)
20.05.2019 21:30 11,5 C 96 % 1003,9 hPa 0,0 l/m 23,9 km/h (4 Bft) W 263 10,9 C 4,1 C 43,5 km/h (6 Bft)
20.05.2019 21:25 11,5 C 96 % 1003,8 hPa 0,0 l/m 25,2 km/h (4 Bft) W-NW 282 10,9 C 3,8 C 41,8 km/h (6 Bft)
20.05.2019 21:20 11,5 C 96 % 1003,8 hPa 0,0 l/m 25,5 km/h (4 Bft) W 268 10,9 C 3,7 C 35,4 km/h (5 Bft)
20.05.2019 21:15 11,6 C 96 % 1003,8 hPa 0,0 l/m 23,1 km/h (4 Bft) W 263 11,0 C 4,5 C 32,2 km/h (5 Bft)
20.05.2019 21:10 11,6 C 96 % 1003,8 hPa 0,0 l/m 21,8 km/h (4 Bft) W 270 11,0 C 4,8 C 35,4 km/h (5 Bft)
20.05.2019 21:05 11,7 C 96 % 1003,8 hPa 0,0 l/m 25,1 km/h (4 Bft) W-NW 283 11,1 C 4,1 C 40,2 km/h (6 Bft)
20.05.2019 21:00 11,7 C 96 % 1003,7 hPa 0,0 l/m 23,0 km/h (4 Bft) W 272 11,1 C 4,6 C 40,2 km/h (6 Bft)
_ Min-Zeit 09:45 18:50 21:00 - 19:55 - - 09:55 05:30 22:35
Minimum _ 9,6 C 95 % 1003,7 hPa - 17,9 km/h (3 Bft) - - 9,1 C -0,8 C 22,5 km/h (4 Bft)
_ Max-Zeit 21:00 07:25 20:50 23:15 02:15 - - 21:05 22:35 16:55
Maximum _ 11,7 C 97 % 1013,2 hPa 1,6 l/m 39,4 km/h
W (6 Bft)
- - 11,1 C 5,5 C 53,1 km/h
W (7 Bft)
Durchschnitt _ 10,5 C 96 % 1006,9 hPa #49,2 l/m 27,3 km/h (5 Bft) W - 9,9 C 2,0 C 39,6 km/h (6 Bft)